sensor_id;sensor_type;location;lat;lon;timestamp;pressure;altitude;pressure_sealevel;temperature;humidity
70343;BME280;57767;42.068;24.752;2024-02-15T00:00:56;99192.09;;;7.75;50.93
70343;BME280;57767;42.068;24.752;2024-02-15T00:02:00;99201.81;;;7.74;51.84
70343;BME280;57767;42.068;24.752;2024-02-15T00:03:01;99197.53;;;7.73;51.37
70343;BME280;57767;42.068;24.752;2024-02-15T00:04:03;99191.28;;;7.74;51.32
70343;BME280;57767;42.068;24.752;2024-02-15T00:05:05;99193.09;;;7.74;51.60
70343;BME280;57767;42.068;24.752;2024-02-15T00:06:07;99205.44;;;7.73;52.07
70343;BME280;57767;42.068;24.752;2024-02-15T00:07:09;99198.56;;;7.72;51.97
70343;BME280;57767;42.068;24.752;2024-02-15T00:08:11;99201.00;;;7.74;52.29
70343;BME280;57767;42.068;24.752;2024-02-15T00:09:12;99193.38;;;7.79;51.14
70343;BME280;57767;42.068;24.752;2024-02-15T00:10:14;99197.53;;;7.73;51.42
70343;BME280;57767;42.068;24.752;2024-02-15T00:11:16;99198.91;;;7.69;51.83
70343;BME280;57767;42.068;24.752;2024-02-15T00:12:18;99194.84;;;7.67;51.75
70343;BME280;57767;42.068;24.752;2024-02-15T00:13:20;99192.03;;;7.68;51.36
70343;BME280;57767;42.068;24.752;2024-02-15T00:14:21;99198.56;;;7.72;51.35
70343;BME280;57767;42.068;24.752;2024-02-15T00:15:23;99201.19;;;7.72;51.52
70343;BME280;57767;42.068;24.752;2024-02-15T00:16:25;99201.38;;;7.71;51.71
70343;BME280;57767;42.068;24.752;2024-02-15T00:17:28;99197.28;;;7.68;52.06
70343;BME280;57767;42.068;24.752;2024-02-15T00:18:34;99165.28;;;7.50;51.82
70343;BME280;57767;42.068;24.752;2024-02-15T00:19:35;99196.13;;;7.71;51.82
70343;BME280;57767;42.068;24.752;2024-02-15T00:20:38;99193.66;;;7.69;51.82
70343;BME280;57767;42.068;24.752;2024-02-15T00:21:43;99188.59;;;7.68;52.20
70343;BME280;57767;42.068;24.752;2024-02-15T00:22:45;99193.91;;;7.74;51.91
70343;BME280;57767;42.068;24.752;2024-02-15T00:23:46;99194.09;;;7.73;50.94
70343;BME280;57767;42.068;24.752;2024-02-15T00:24:48;99199.75;;;7.70;51.50
70343;BME280;57767;42.068;24.752;2024-02-15T00:25:52;99180.25;;;7.64;51.56
70343;BME280;57767;42.068;24.752;2024-02-15T00:26:54;99197.13;;;7.70;52.49
70343;BME280;57767;42.068;24.752;2024-02-15T00:27:55;99190.69;;;7.72;52.03
70343;BME280;57767;42.068;24.752;2024-02-15T00:28:58;99188.41;;;7.69;51.51
70343;BME280;57767;42.068;24.752;2024-02-15T00:30:00;99193.91;;;7.74;51.60
70343;BME280;57767;42.068;24.752;2024-02-15T00:31:01;99172.53;;;7.63;51.38
70343;BME280;57767;42.068;24.752;2024-02-15T00:32:05;99187.31;;;7.64;51.47
70343;BME280;57767;42.068;24.752;2024-02-15T00:33:07;99180.59;;;7.61;51.69
70343;BME280;57767;42.068;24.752;2024-02-15T00:34:10;99184.22;;;7.60;51.99
70343;BME280;57767;42.068;24.752;2024-02-15T00:35:12;99181.59;;;7.60;52.09
70343;BME280;57767;42.068;24.752;2024-02-15T00:36:15;99194.84;;;7.67;51.97
70343;BME280;57767;42.068;24.752;2024-02-15T00:37:16;99193.31;;;7.72;51.52
70343;BME280;57767;42.068;24.752;2024-02-15T00:38:18;99192.28;;;7.73;51.06
70343;BME280;57767;42.068;24.752;2024-02-15T00:39:21;99183.69;;;7.65;51.49
70343;BME280;57767;42.068;24.752;2024-02-15T00:40:23;99193.66;;;7.69;52.20
70343;BME280;57767;42.068;24.752;2024-02-15T00:41:25;99197.75;;;7.72;51.66
70343;BME280;57767;42.068;24.752;2024-02-15T00:42:26;99187.59;;;7.69;51.24
70343;BME280;57767;42.068;24.752;2024-02-15T00:43:28;99187.94;;;7.66;51.31
70343;BME280;57767;42.068;24.752;2024-02-15T00:44:30;99189.94;;;7.64;51.06
70343;BME280;57767;42.068;24.752;2024-02-15T00:45:32;99193.56;;;7.63;51.26
70343;BME280;57767;42.068;24.752;2024-02-15T00:46:33;99191.56;;;7.65;51.28
70343;BME280;57767;42.068;24.752;2024-02-15T00:47:36;99190.56;;;7.66;51.29
70343;BME280;57767;42.068;24.752;2024-02-15T00:48:39;99185.97;;;7.68;51.34
70343;BME280;57767;42.068;24.752;2024-02-15T00:49:42;99167.56;;;7.53;51.26
70343;BME280;57767;42.068;24.752;2024-02-15T00:50:44;99192.84;;;7.69;51.22
70343;BME280;57767;42.068;24.752;2024-02-15T00:51:46;99182.69;;;7.66;50.71
70343;BME280;57767;42.068;24.752;2024-02-15T00:52:48;99188.59;;;7.68;50.89
70343;BME280;57767;42.068;24.752;2024-02-15T00:53:50;99186.41;;;7.71;51.04
70343;BME280;57767;42.068;24.752;2024-02-15T00:54:51;99194.09;;;7.73;50.77
70343;BME280;57767;42.068;24.752;2024-02-15T00:55:55;99188.84;;;7.73;51.07
70343;BME280;57767;42.068;24.752;2024-02-15T00:56:57;99198.34;;;7.74;51.40
70343;BME280;57767;42.068;24.752;2024-02-15T00:57:59;99186.78;;;7.68;51.28
70343;BME280;57767;42.068;24.752;2024-02-15T00:59:00;99188.75;;;7.66;51.04
70343;BME280;57767;42.068;24.752;2024-02-15T01:00:03;99187.59;;;7.69;51.04
70343;BME280;57767;42.068;24.752;2024-02-15T01:01:07;99195.84;;;7.66;50.99
70343;BME280;57767;42.068;24.752;2024-02-15T01:02:10;99184.97;;;7.69;51.16
70343;BME280;57767;42.068;24.752;2024-02-15T01:03:11;99185.97;;;7.68;51.31
70343;BME280;57767;42.068;24.752;2024-02-15T01:04:13;99187.47;;;7.62;51.04
70343;BME280;57767;42.068;24.752;2024-02-15T01:05:15;99192.56;;;7.64;50.99
70343;BME280;57767;42.068;24.752;2024-02-15T01:06:17;99195.19;;;7.64;51.36
70343;BME280;57767;42.068;24.752;2024-02-15T01:07:18;99195.19;;;7.64;51.83
70343;BME280;57767;42.068;24.752;2024-02-15T01:08:20;99183.22;;;7.61;51.24
70343;BME280;57767;42.068;24.752;2024-02-15T01:09:22;99196.81;;;7.65;51.34
70343;BME280;57767;42.068;24.752;2024-02-15T01:10:24;99196.19;;;7.63;50.98
70343;BME280;57767;42.068;24.752;2024-02-15T01:11:26;99197.81;;;7.64;50.82
70343;BME280;57767;42.068;24.752;2024-02-15T01:12:29;99196.56;;;7.60;50.79
70343;BME280;57767;42.068;24.752;2024-02-15T01:13:31;99192.31;;;7.59;51.65
70343;BME280;57767;42.068;24.752;2024-02-15T01:14:32;99184.22;;;7.60;51.99
70343;BME280;57767;42.068;24.752;2024-02-15T01:15:34;99192.47;;;7.57;51.75
70343;BME280;57767;42.068;24.752;2024-02-15T01:16:38;99186.22;;;7.58;51.32
70343;BME280;57767;42.068;24.752;2024-02-15T01:17:40;99186.41;;;7.57;51.34
70343;BME280;57767;42.068;24.752;2024-02-15T01:18:42;99188.88;;;7.58;51.06
70343;BME280;57767;42.068;24.752;2024-02-15T01:19:44;99182.31;;;7.54;51.11
70343;BME280;57767;42.068;24.752;2024-02-15T01:20:46;99188.03;;;7.58;51.15
70343;BME280;57767;42.068;24.752;2024-02-15T01:21:48;99184.59;;;7.57;51.31
70343;BME280;57767;42.068;24.752;2024-02-15T01:22:50;99186.59;;;7.55;51.36
70343;BME280;57767;42.068;24.752;2024-02-15T01:23:53;99187.06;;;7.59;51.64
70343;BME280;57767;42.068;24.752;2024-02-15T01:24:55;99188.47;;;7.61;51.09
70343;BME280;57767;42.068;24.752;2024-02-15T01:25:58;99190.28;;;7.61;51.52
70343;BME280;57767;42.068;24.752;2024-02-15T01:27:01;99192.31;;;7.59;51.47
70343;BME280;57767;42.068;24.752;2024-02-15T01:28:03;99184.44;;;7.59;51.01
70343;BME280;57767;42.068;24.752;2024-02-15T01:29:05;99184.78;;;7.55;50.96
70343;BME280;57767;42.068;24.752;2024-02-15T01:30:07;99196.09;;;7.56;51.07
70343;BME280;57767;42.068;24.752;2024-02-15T01:31:10;99192.53;;;7.49;51.44
70343;BME280;57767;42.068;24.752;2024-02-15T01:32:12;99190.72;;;7.49;51.09
70343;BME280;57767;42.068;24.752;2024-02-15T01:33:14;99197.63;;;7.50;50.75
70343;BME280;57767;42.068;24.752;2024-02-15T01:34:16;99176.88;;;7.41;51.06
70343;BME280;57767;42.068;24.752;2024-02-15T01:35:18;99193.38;;;7.49;51.46
70343;BME280;57767;42.068;24.752;2024-02-15T01:36:20;99174.06;;;7.42;51.26
70343;BME280;57767;42.068;24.752;2024-02-15T01:37:21;99190.56;;;7.51;50.51
70343;BME280;57767;42.068;24.752;2024-02-15T01:38:23;99189.91;;;7.49;50.81
70343;BME280;57767;42.068;24.752;2024-02-15T01:39:25;99193.38;;;7.49;51.08
70343;BME280;57767;42.068;24.752;2024-02-15T01:40:26;99193.75;;;7.46;51.38
70343;BME280;57767;42.068;24.752;2024-02-15T01:41:28;99192.13;;;7.45;50.75
70343;BME280;57767;42.068;24.752;2024-02-15T01:42:30;99182.22;;;7.47;50.61
70343;BME280;57767;42.068;24.752;2024-02-15T01:43:31;99198.25;;;7.52;51.03
70343;BME280;57767;42.068;24.752;2024-02-15T01:44:35;99197.44;;;7.52;50.97
70343;BME280;57767;42.068;24.752;2024-02-15T01:45:38;99193.38;;;7.49;51.18
70343;BME280;57767;42.068;24.752;2024-02-15T01:46:40;99189.47;;;7.45;51.01
70343;BME280;57767;42.068;24.752;2024-02-15T01:47:42;99198.63;;;7.49;50.95
70343;BME280;57767;42.068;24.752;2024-02-15T01:48:45;99204.69;;;7.50;51.20
70343;BME280;57767;42.068;24.752;2024-02-15T01:49:47;99200.59;;;7.47;51.15
70343;BME280;57767;42.068;24.752;2024-02-15T01:50:50;99192.72;;;7.47;51.22
70343;BME280;57767;42.068;24.752;2024-02-15T01:51:54;99200.25;;;7.50;51.06
70343;BME280;57767;42.068;24.752;2024-02-15T01:52:58;99196.38;;;7.46;50.91
70343;BME280;57767;42.068;24.752;2024-02-15T01:54:01;99194.28;;;7.42;51.23
70343;BME280;57767;42.068;24.752;2024-02-15T01:55:05;99197.97;;;7.47;51.24
70343;BME280;57767;42.068;24.752;2024-02-15T01:56:12;99198.19;;;7.46;51.20
70343;BME280;57767;42.068;24.752;2024-02-15T01:57:15;99191.13;;;7.46;51.11
70343;BME280;57767;42.068;24.752;2024-02-15T01:58:18;99200.00;;;7.45;51.38
70343;BME280;57767;42.068;24.752;2024-02-15T01:59:22;99189.19;;;7.40;51.27
70343;BME280;57767;42.068;24.752;2024-02-15T02:00:24;99180.19;;;7.35;51.20
70343;BME280;57767;42.068;24.752;2024-02-15T02:01:27;99196.38;;;7.46;50.97
70343;BME280;57767;42.068;24.752;2024-02-15T02:02:31;99196.91;;;7.42;51.41
70343;BME280;57767;42.068;24.752;2024-02-15T02:03:35;99185.94;;;7.38;51.35
70343;BME280;57767;42.068;24.752;2024-02-15T02:04:37;99182.66;;;7.36;51.63
70343;BME280;57767;42.068;24.752;2024-02-15T02:05:42;99189.63;;;7.29;51.24
70343;BME280;57767;42.068;24.752;2024-02-15T02:06:44;99186.38;;;7.27;51.43
70343;BME280;57767;42.068;24.752;2024-02-15T02:07:46;99185.38;;;7.28;51.84
70343;BME280;57767;42.068;24.752;2024-02-15T02:08:48;99189.28;;;7.32;51.43
70343;BME280;57767;42.068;24.752;2024-02-15T02:09:50;99186.84;;;7.31;51.60
70343;BME280;57767;42.068;24.752;2024-02-15T02:10:52;99189.00;;;7.27;51.49
70343;BME280;57767;42.068;24.752;2024-02-15T02:11:54;99198.22;;;7.23;51.49
70343;BME280;57767;42.068;24.752;2024-02-15T02:12:56;99199.84;;;7.24;51.59
70343;BME280;57767;42.068;24.752;2024-02-15T02:13:58;99195.16;;;7.19;51.66
70343;BME280;57767;42.068;24.752;2024-02-15T02:14:59;99203.47;;;7.23;51.17
70343;BME280;57767;42.068;24.752;2024-02-15T02:16:01;99207.00;;;7.15;51.61
70343;BME280;57767;42.068;24.752;2024-02-15T02:17:15;99201.75;;;7.15;51.74
70343;BME280;57767;42.068;24.752;2024-02-15T02:18:17;99200.00;;;7.08;51.76
70343;BME280;57767;42.068;24.752;2024-02-15T02:19:18;99204.72;;;7.12;52.01
70343;BME280;57767;42.068;24.752;2024-02-15T02:20:20;99205.53;;;7.13;52.24
70343;BME280;57767;42.068;24.752;2024-02-15T02:21:23;99208.50;;;7.10;52.24
70343;BME280;57767;42.068;24.752;2024-02-15T02:22:26;99215.38;;;7.11;52.00
70343;BME280;57767;42.068;24.752;2024-02-15T02:23:29;99203.72;;;7.13;52.43
70343;BME280;57767;42.068;24.752;2024-02-15T02:24:34;99216.09;;;7.05;51.67
70343;BME280;57767;42.068;24.752;2024-02-15T02:25:38;99210.84;;;7.05;51.83
70343;BME280;57767;42.068;24.752;2024-02-15T02:26:40;99205.78;;;7.03;52.01
70343;BME280;57767;42.068;24.752;2024-02-15T02:27:42;99215.56;;;7.09;51.97
70343;BME280;57767;42.068;24.752;2024-02-15T02:28:43;99206.59;;;7.04;51.97
70343;BME280;57767;42.068;24.752;2024-02-15T02:29:45;99216.94;;;7.05;51.93
70343;BME280;57767;42.068;24.752;2024-02-15T02:30:47;99213.19;;;7.00;52.52
70343;BME280;57767;42.068;24.752;2024-02-15T02:31:49;99218.09;;;7.03;52.22
70343;BME280;57767;42.068;24.752;2024-02-15T02:32:51;99215.28;;;7.04;52.24
70343;BME280;57767;42.068;24.752;2024-02-15T02:33:54;99218.97;;;6.95;52.79
70343;BME280;57767;42.068;24.752;2024-02-15T02:34:56;99217.09;;;7.04;52.79
70343;BME280;57767;42.068;24.752;2024-02-15T02:35:58;99210.13;;;6.96;52.17
70343;BME280;57767;42.068;24.752;2024-02-15T02:37:00;99223.34;;;7.03;52.79
70343;BME280;57767;42.068;24.752;2024-02-15T02:38:06;99219.97;;;6.94;52.87
70343;BME280;57767;42.068;24.752;2024-02-15T02:39:08;99219.16;;;6.94;52.55
70343;BME280;57767;42.068;24.752;2024-02-15T02:40:10;99220.41;;;6.98;52.79
70343;BME280;57767;42.068;24.752;2024-02-15T02:41:14;99211.31;;;6.86;52.86
70343;BME280;57767;42.068;24.752;2024-02-15T02:42:15;99222.63;;;6.86;52.97
70343;BME280;57767;42.068;24.752;2024-02-15T02:43:17;99204.00;;;6.81;52.65
70343;BME280;57767;42.068;24.752;2024-02-15T02:44:18;99222.47;;;6.88;52.73
70343;BME280;57767;42.068;24.752;2024-02-15T02:45:20;99229.34;;;6.89;52.65
70343;BME280;57767;42.068;24.752;2024-02-15T02:46:24;99223.94;;;6.90;53.19
70343;BME280;57767;42.068;24.752;2024-02-15T02:47:26;99221.78;;;6.94;52.99
70343;BME280;57767;42.068;24.752;2024-02-15T02:48:27;99222.59;;;6.94;52.83
70343;BME280;57767;42.068;24.752;2024-02-15T02:49:29;99224.25;;;6.87;52.68
70343;BME280;57767;42.068;24.752;2024-02-15T02:50:31;99218.19;;;6.87;52.79
70343;BME280;57767;42.068;24.752;2024-02-15T02:51:33;99220.66;;;6.88;53.10
70343;BME280;57767;42.068;24.752;2024-02-15T02:52:35;99211.31;;;6.86;53.12
70343;BME280;57767;42.068;24.752;2024-02-15T02:53:40;99216.88;;;6.91;52.79
70343;BME280;57767;42.068;24.752;2024-02-15T02:54:42;99219.16;;;6.94;52.63
70343;BME280;57767;42.068;24.752;2024-02-15T02:55:43;99219.16;;;6.94;53.00
70343;BME280;57767;42.068;24.752;2024-02-15T02:56:45;99215.22;;;6.90;52.91
70343;BME280;57767;42.068;24.752;2024-02-15T02:57:47;99222.63;;;6.86;52.77
70343;BME280;57767;42.068;24.752;2024-02-15T02:58:49;99220.19;;;6.84;53.23
70343;BME280;57767;42.068;24.752;2024-02-15T02:59:52;99228.25;;;6.83;52.86
70343;BME280;57767;42.068;24.752;2024-02-15T03:00:54;99220.00;;;6.86;52.96
70343;BME280;57767;42.068;24.752;2024-02-15T03:01:56;99225.25;;;6.86;52.78
70343;BME280;57767;42.068;24.752;2024-02-15T03:02:58;99218.69;;;6.90;52.79
70343;BME280;57767;42.068;24.752;2024-02-15T03:04:01;99225.38;;;6.93;52.97
70343;BME280;57767;42.068;24.752;2024-02-15T03:05:06;99222.28;;;6.89;52.60
70343;BME280;57767;42.068;24.752;2024-02-15T03:06:10;99220.56;;;6.81;53.15
70343;BME280;57767;42.068;24.752;2024-02-15T03:07:12;99226.44;;;6.83;52.90
70343;BME280;57767;42.068;24.752;2024-02-15T03:08:18;99220.00;;;6.86;53.31
70343;BME280;57767;42.068;24.752;2024-02-15T03:09:20;99219.66;;;6.89;53.18
70343;BME280;57767;42.068;24.752;2024-02-15T03:10:22;99209.69;;;6.84;53.27
70343;BME280;57767;42.068;24.752;2024-02-15T03:11:25;99213.50;;;6.82;53.58
70343;BME280;57767;42.068;24.752;2024-02-15T03:12:27;99214.94;;;6.84;53.52
70343;BME280;57767;42.068;24.752;2024-02-15T03:13:30;99208.53;;;6.87;53.47
70343;BME280;57767;42.068;24.752;2024-02-15T03:14:32;99211.31;;;6.86;53.39
70343;BME280;57767;42.068;24.752;2024-02-15T03:15:37;99209.34;;;6.88;53.30
70343;BME280;57767;42.068;24.752;2024-02-15T03:16:39;99206.72;;;6.88;53.23
70343;BME280;57767;42.068;24.752;2024-02-15T03:17:41;99203.16;;;6.80;53.40
70343;BME280;57767;42.068;24.752;2024-02-15T03:18:43;99206.06;;;6.86;53.27
70343;BME280;57767;42.068;24.752;2024-02-15T03:19:45;99210.50;;;6.85;53.53
70343;BME280;57767;42.068;24.752;2024-02-15T03:20:46;99205.78;;;6.80;53.46
70343;BME280;57767;42.068;24.752;2024-02-15T03:21:50;99204.97;;;6.80;53.67
70343;BME280;57767;42.068;24.752;2024-02-15T03:22:56;99210.50;;;6.85;53.19
70343;BME280;57767;42.068;24.752;2024-02-15T03:23:59;99205.25;;;6.85;53.30
70343;BME280;57767;42.068;24.752;2024-02-15T03:25:01;99210.97;;;6.89;53.51
70343;BME280;57767;42.068;24.752;2024-02-15T03:26:02;99204.44;;;6.84;53.18
70343;BME280;57767;42.068;24.752;2024-02-15T03:27:08;99210.06;;;6.81;53.39
70343;BME280;57767;42.068;24.752;2024-02-15T03:28:11;99179.50;;;6.66;53.09
70343;BME280;57767;42.068;24.752;2024-02-15T03:29:13;99213.94;;;6.86;52.76
70343;BME280;57767;42.068;24.752;2024-02-15T03:30:14;99206.44;;;6.82;52.71
70343;BME280;57767;42.068;24.752;2024-02-15T03:31:16;99208.84;;;6.84;53.00
70343;BME280;57767;42.068;24.752;2024-02-15T03:32:20;99213.13;;;6.85;53.40
70343;BME280;57767;42.068;24.752;2024-02-15T03:33:21;99219.19;;;6.86;53.04
70343;BME280;57767;42.068;24.752;2024-02-15T03:34:28;99216.94;;;6.82;52.92
70343;BME280;57767;42.068;24.752;2024-02-15T03:35:30;99228.25;;;6.83;53.22
70343;BME280;57767;42.068;24.752;2024-02-15T03:36:33;99213.66;;;6.80;52.80
70343;BME280;57767;42.068;24.752;2024-02-15T03:37:35;99218.03;;;6.88;52.80
70343;BME280;57767;42.068;24.752;2024-02-15T03:38:39;99218.19;;;6.87;52.56
70343;BME280;57767;42.068;24.752;2024-02-15T03:39:43;99217.03;;;6.89;53.04
70343;BME280;57767;42.068;24.752;2024-02-15T03:40:44;99226.56;;;6.90;53.02
70343;BME280;57767;42.068;24.752;2024-02-15T03:41:46;99217.03;;;6.89;52.61
70343;BME280;57767;42.068;24.752;2024-02-15T03:42:48;99229.00;;;6.92;52.94
70343;BME280;57767;42.068;24.752;2024-02-15T03:43:51;99217.84;;;6.90;52.62
70343;BME280;57767;42.068;24.752;2024-02-15T03:44:54;99221.47;;;6.89;52.54
70343;BME280;57767;42.068;24.752;2024-02-15T03:45:56;99217.84;;;6.90;52.62
70343;BME280;57767;42.068;24.752;2024-02-15T03:47:00;99208.19;;;6.90;52.69
70343;BME280;57767;42.068;24.752;2024-02-15T03:48:01;99217.16;;;6.96;52.71
70343;BME280;57767;42.068;24.752;2024-02-15T03:49:07;99214.06;;;6.92;52.72
70343;BME280;57767;42.068;24.752;2024-02-15T03:50:09;99219.97;;;6.94;52.83
70343;BME280;57767;42.068;24.752;2024-02-15T03:51:15;99214.06;;;6.92;52.18
70343;BME280;57767;42.068;24.752;2024-02-15T03:52:17;99217.34;;;6.94;52.35
70343;BME280;57767;42.068;24.752;2024-02-15T03:53:19;99220.78;;;6.95;52.59
70343;BME280;57767;42.068;24.752;2024-02-15T03:54:21;99228.13;;;6.99;52.67
70343;BME280;57767;42.068;24.752;2024-02-15T03:55:25;99224.66;;;6.99;52.50
70343;BME280;57767;42.068;24.752;2024-02-15T03:56:27;99220.41;;;6.98;52.91
70343;BME280;57767;42.068;24.752;2024-02-15T03:57:29;99225.88;;;6.96;52.58
70343;BME280;57767;42.068;24.752;2024-02-15T03:58:31;99220.06;;;7.01;52.71
70343;BME280;57767;42.068;24.752;2024-02-15T03:59:34;99227.44;;;7.05;52.64
70343;BME280;57767;42.068;24.752;2024-02-15T04:00:37;99233.31;;;7.07;52.88
70343;BME280;57767;42.068;24.752;2024-02-15T04:01:40;99229.41;;;7.03;52.53
70343;BME280;57767;42.068;24.752;2024-02-15T04:02:42;99230.22;;;7.04;52.41
70343;BME280;57767;42.068;24.752;2024-02-15T04:03:44;99232.84;;;7.04;52.78
70343;BME280;57767;42.068;24.752;2024-02-15T04:04:46;99229.41;;;7.03;52.19
70343;BME280;57767;42.068;24.752;2024-02-15T04:05:54;99227.94;;;7.01;52.52
70343;BME280;57767;42.068;24.752;2024-02-15T04:06:56;99228.59;;;7.03;52.56
70343;BME280;57767;42.068;24.752;2024-02-15T04:07:58;99232.84;;;7.04;52.70
70343;BME280;57767;42.068;24.752;2024-02-15T04:09:03;99225.31;;;7.01;51.83
70343;BME280;57767;42.068;24.752;2024-02-15T04:10:06;99227.59;;;7.04;52.49
70343;BME280;57767;42.068;24.752;2024-02-15T04:11:08;99230.22;;;7.04;52.19
70343;BME280;57767;42.068;24.752;2024-02-15T04:12:12;99229.41;;;7.03;52.55
70343;BME280;57767;42.068;24.752;2024-02-15T04:13:13;99226.78;;;7.03;52.36
70343;BME280;57767;42.068;24.752;2024-02-15T04:14:16;99233.16;;;7.09;52.23
70343;BME280;57767;42.068;24.752;2024-02-15T04:15:19;99230.69;;;7.07;52.60
70343;BME280;57767;42.068;24.752;2024-02-15T04:16:22;99225.78;;;7.04;52.24
70343;BME280;57767;42.068;24.752;2024-02-15T04:17:23;99237.94;;;7.05;52.62
70343;BME280;57767;42.068;24.752;2024-02-15T04:18:25;99233.66;;;7.04;52.04
70343;BME280;57767;42.068;24.752;2024-02-15T04:19:27;99240.56;;;7.05;51.84
70343;BME280;57767;42.068;24.752;2024-02-15T04:20:29;99236.78;;;7.08;52.24
70343;BME280;57767;42.068;24.752;2024-02-15T04:21:31;99226.88;;;7.10;51.91
70343;BME280;57767;42.068;24.752;2024-02-15T04:22:33;99207.69;;;6.87;51.89
70343;BME280;57767;42.068;24.752;2024-02-15T04:23:38;99231.31;;;7.09;51.95
70343;BME280;57767;42.068;24.752;2024-02-15T04:24:40;99236.94;;;7.06;52.50
70343;BME280;57767;42.068;24.752;2024-02-15T04:25:42;99244.00;;;7.06;52.55
70343;BME280;57767;42.068;24.752;2024-02-15T04:26:45;99232.34;;;7.08;51.85
70343;BME280;57767;42.068;24.752;2024-02-15T04:27:49;99241.19;;;7.07;52.16
70343;BME280;57767;42.068;24.752;2024-02-15T04:28:51;99225.44;;;7.07;52.32
70343;BME280;57767;42.068;24.752;2024-02-15T04:29:54;99234.75;;;7.10;51.83
70343;BME280;57767;42.068;24.752;2024-02-15T04:30:56;99240.66;;;7.12;51.71
70343;BME280;57767;42.068;24.752;2024-02-15T04:31:57;99233.31;;;7.07;52.06
70343;BME280;57767;42.068;24.752;2024-02-15T04:32:59;99235.78;;;7.09;52.06
70343;BME280;57767;42.068;24.752;2024-02-15T04:34:01;99224.16;;;7.03;51.81
70343;BME280;57767;42.068;24.752;2024-02-15T04:35:03;99243.81;;;7.07;51.74
70343;BME280;57767;42.068;24.752;2024-02-15T04:36:09;99237.59;;;7.08;51.75
70343;BME280;57767;42.068;24.752;2024-02-15T04:37:10;99241.63;;;7.11;52.15
70343;BME280;57767;42.068;24.752;2024-02-15T04:38:12;99241.81;;;7.09;52.10
70343;BME280;57767;42.068;24.752;2024-02-15T04:39:14;99235.94;;;7.07;51.67
70343;BME280;57767;42.068;24.752;2024-02-15T04:40:25;99232.78;;;7.12;52.09
70343;BME280;57767;42.068;24.752;2024-02-15T04:41:27;99235.06;;;7.15;51.79
70343;BME280;57767;42.068;24.752;2024-02-15T04:42:28;99237.50;;;7.16;51.59
70343;BME280;57767;42.068;24.752;2024-02-15T04:43:32;99236.22;;;7.12;52.00
70343;BME280;57767;42.068;24.752;2024-02-15T04:44:35;99247.88;;;7.10;52.26
70343;BME280;57767;42.068;24.752;2024-02-15T04:45:37;99243.28;;;7.12;52.15
70343;BME280;57767;42.068;24.752;2024-02-15T04:46:38;99241.31;;;7.14;52.26
70343;BME280;57767;42.068;24.752;2024-02-15T04:47:41;99235.78;;;7.09;52.32
70343;BME280;57767;42.068;24.752;2024-02-15T04:48:43;99251.81;;;7.14;52.12
70343;BME280;57767;42.068;24.752;2024-02-15T04:49:44;99242.84;;;7.08;52.51
70343;BME280;57767;42.068;24.752;2024-02-15T04:50:46;99239.84;;;7.11;51.95
70343;BME280;57767;42.068;24.752;2024-02-15T04:51:48;99243.28;;;7.12;51.88
70343;BME280;57767;42.068;24.752;2024-02-15T04:52:50;99249.81;;;7.16;51.91
70343;BME280;57767;42.068;24.752;2024-02-15T04:53:51;99246.56;;;7.14;51.71
70343;BME280;57767;42.068;24.752;2024-02-15T04:54:53;99243.44;;;7.10;51.92
70343;BME280;57767;42.068;24.752;2024-02-15T04:55:59;99247.53;;;7.13;51.90
70343;BME280;57767;42.068;24.752;2024-02-15T04:57:02;99243.75;;;7.15;51.84
70343;BME280;57767;42.068;24.752;2024-02-15T04:58:04;99239.66;;;7.13;51.87
70343;BME280;57767;42.068;24.752;2024-02-15T04:59:10;99233.59;;;7.12;51.74
70343;BME280;57767;42.068;24.752;2024-02-15T05:00:17;99238.41;;;7.09;52.14
70343;BME280;57767;42.068;24.752;2024-02-15T05:01:22;99242.47;;;7.11;51.85
70343;BME280;57767;42.068;24.752;2024-02-15T05:02:25;99242.28;;;7.13;51.69
70343;BME280;57767;42.068;24.752;2024-02-15T05:03:26;99240.47;;;7.13;51.88
70343;BME280;57767;42.068;24.752;2024-02-15T05:04:28;99253.44;;;7.15;51.92
70343;BME280;57767;42.068;24.752;2024-02-15T05:05:30;99245.09;;;7.11;51.35
70343;BME280;57767;42.068;24.752;2024-02-15T05:06:32;99246.91;;;7.11;52.04
70343;BME280;57767;42.068;24.752;2024-02-15T05:07:34;99243.66;;;7.09;52.13
70343;BME280;57767;42.068;24.752;2024-02-15T05:08:39;99244.28;;;7.11;52.12
70343;BME280;57767;42.068;24.752;2024-02-15T05:09:44;99246.91;;;7.11;51.71
70343;BME280;57767;42.068;24.752;2024-02-15T05:10:45;99241.47;;;7.12;51.95
70343;BME280;57767;42.068;24.752;2024-02-15T05:11:47;99244.91;;;7.13;51.72
70343;BME280;57767;42.068;24.752;2024-02-15T05:12:50;99237.59;;;7.08;51.35
70343;BME280;57767;42.068;24.752;2024-02-15T05:13:52;99240.00;;;7.10;51.71
70343;BME280;57767;42.068;24.752;2024-02-15T05:14:53;99233.16;;;7.09;51.48
70343;BME280;57767;42.068;24.752;2024-02-15T05:15:55;99243.28;;;7.12;51.90
70343;BME280;57767;42.068;24.752;2024-02-15T05:16:57;99241.31;;;7.14;51.23
70343;BME280;57767;42.068;24.752;2024-02-15T05:17:59;99237.38;;;7.10;51.58
70343;BME280;57767;42.068;24.752;2024-02-15T05:19:03;99238.66;;;7.14;51.89
70343;BME280;57767;42.068;24.752;2024-02-15T05:20:05;99251.47;;;7.17;51.23
70343;BME280;57767;42.068;24.752;2024-02-15T05:21:12;99242.94;;;7.15;51.73
70343;BME280;57767;42.068;24.752;2024-02-15T05:22:14;99257.53;;;7.17;51.88
70343;BME280;57767;42.068;24.752;2024-02-15T05:23:16;99248.19;;;7.15;52.01
70343;BME280;57767;42.068;24.752;2024-02-15T05:24:19;99251.53;;;7.09;52.25
70343;BME280;57767;42.068;24.752;2024-02-15T05:25:21;99255.41;;;7.13;51.73
70343;BME280;57767;42.068;24.752;2024-02-15T05:26:28;99254.16;;;7.09;51.83
70343;BME280;57767;42.068;24.752;2024-02-15T05:27:29;99251.16;;;7.12;52.01
70343;BME280;57767;42.068;24.752;2024-02-15T05:28:31;99246.06;;;7.10;51.53
70343;BME280;57767;42.068;24.752;2024-02-15T05:29:33;99266.09;;;7.11;51.76
70343;BME280;57767;42.068;24.752;2024-02-15T05:30:36;99264.28;;;7.12;52.10
70343;BME280;57767;42.068;24.752;2024-02-15T05:31:40;99258.38;;;7.10;51.81